📊 Raw Sensor Data

Showing records 50151 to 50175 of 85,130 total

ID Distance (ft) Battery V Battery A Int Temp (°F) Int Humid (%) Ext Temp (°F) Solar V RSSI SNR Time Stamp
34992 15.1 4.00 -5 46 40 48 0.00 -80 8 03/14/2025 08:15 PM
34991 15.1 4.00 -5 46 41 47 0.00 -78 8 03/14/2025 08:00 PM
34990 15.1 4.00 -5 47 41 47 0.00 -80 7 03/14/2025 07:45 PM
34989 15.0 4.05 -5 47 41 48 0.20 -78 8 03/14/2025 07:30 PM
34988 15.1 4.00 -9 48 41 48 1.60 -81 8 03/14/2025 07:15 PM
34987 15.0 4.06 0 48 42 48 4.50 -80 7 03/14/2025 07:00 PM
34986 15.1 4.03 5 50 41 49 4.50 -78 8 03/14/2025 06:45 PM
34985 15.1 4.06 0 54 39 52 4.50 -82 8 03/14/2025 06:30 PM
34984 15.0 4.06 0 52 40 51 5.10 -80 7 03/14/2025 06:15 PM
34983 15.1 4.06 0 51 40 51 5.10 -85 7 03/14/2025 06:00 PM
34982 15.1 4.05 0 51 41 50 5.10 -82 7 03/14/2025 05:45 PM
34981 15.1 4.05 0 50 41 50 5.10 -82 7 03/14/2025 05:30 PM
34980 15.0 4.10 43 50 42 49 4.50 -81 7 03/14/2025 05:15 PM
34979 -- 4.09 0 51 43 50 4.50 -89 7 03/14/2025 05:00 PM
34978 -- 4.05 0 52 43 50 5.10 -81 8 03/14/2025 04:45 PM
34977 -- 4.04 0 56 40 52 5.10 -82 9 03/14/2025 04:30 PM
34976 -- 4.14 0 59 38 56 5.10 -77 9 03/14/2025 04:15 PM
34975 15.2 4.04 0 56 40 54 5.10 -80 8 03/14/2025 04:00 PM
34974 -- 4.04 0 55 40 52 5.10 -80 8 03/14/2025 03:45 PM
34973 15.1 4.04 0 60 37 56 5.10 -80 8 03/14/2025 03:30 PM
34972 -- 4.04 0 58 36 53 5.10 -79 8 03/14/2025 03:15 PM
34971 -- 4.04 0 56 37 53 5.10 -83 9 03/14/2025 03:00 PM
34970 15.0 4.04 0 51 40 51 5.10 -81 8 03/14/2025 02:45 PM
34969 15.0 4.09 0 50 41 49 5.10 -84 8 03/14/2025 02:30 PM
34968 15.1 4.05 0 51 41 49 5.10 -78 8 03/14/2025 02:15 PM